sensor_id;sensor_type;location;lat;lon;timestamp;P1;durP1;ratioP1;P2;durP2;ratioP2
75007;SDS011;63554;48.940;12.050;2023-06-22T00:01:24;4.47;;;2.40;;
75007;SDS011;63554;48.940;12.050;2023-06-22T00:05:27;4.93;;;2.42;;
75007;SDS011;63554;48.940;12.050;2023-06-22T00:09:30;3.53;;;2.55;;
75007;SDS011;63554;48.940;12.050;2023-06-22T00:13:33;6.30;;;2.08;;
75007;SDS011;63554;48.940;12.050;2023-06-22T00:17:37;4.35;;;2.92;;
75007;SDS011;63554;48.940;12.050;2023-06-22T00:21:40;5.15;;;3.03;;
75007;SDS011;63554;48.940;12.050;2023-06-22T00:25:43;4.78;;;2.90;;
75007;SDS011;63554;48.940;12.050;2023-06-22T00:29:52;4.78;;;2.45;;
75007;SDS011;63554;48.940;12.050;2023-06-22T00:34:04;2.92;;;2.45;;
75007;SDS011;63554;48.940;12.050;2023-06-22T00:38:08;8.55;;;3.47;;
75007;SDS011;63554;48.940;12.050;2023-06-22T00:42:10;4.07;;;2.70;;
75007;SDS011;63554;48.940;12.050;2023-06-22T00:46:13;4.07;;;2.33;;
75007;SDS011;63554;48.940;12.050;2023-06-22T00:50:21;4.75;;;2.67;;
75007;SDS011;63554;48.940;12.050;2023-06-22T00:54:25;5.63;;;3.08;;
75007;SDS011;63554;48.940;12.050;2023-06-22T00:58:27;6.82;;;2.63;;
75007;SDS011;63554;48.940;12.050;2023-06-22T01:02:32;6.63;;;3.20;;
75007;SDS011;63554;48.940;12.050;2023-06-22T01:06:38;5.88;;;3.70;;
75007;SDS011;63554;48.940;12.050;2023-06-22T01:10:49;4.97;;;3.47;;
75007;SDS011;63554;48.940;12.050;2023-06-22T01:14:57;5.90;;;3.17;;
75007;SDS011;63554;48.940;12.050;2023-06-22T01:19:08;5.13;;;3.42;;
75007;SDS011;63554;48.940;12.050;2023-06-22T01:28:17;7.43;;;3.45;;
75007;SDS011;63554;48.940;12.050;2023-06-22T01:32:40;6.57;;;3.08;;
75007;SDS011;63554;48.940;12.050;2023-06-22T01:36:46;6.75;;;3.72;;
75007;SDS011;63554;48.940;12.050;2023-06-22T01:40:52;5.28;;;3.63;;
75007;SDS011;63554;48.940;12.050;2023-06-22T01:44:56;6.88;;;3.78;;
75007;SDS011;63554;48.940;12.050;2023-06-22T01:49:03;8.32;;;4.07;;
75007;SDS011;63554;48.940;12.050;2023-06-22T01:53:08;6.88;;;4.07;;
75007;SDS011;63554;48.940;12.050;2023-06-22T01:57:11;7.07;;;4.05;;
75007;SDS011;63554;48.940;12.050;2023-06-22T02:01:16;9.35;;;4.32;;
75007;SDS011;63554;48.940;12.050;2023-06-22T02:05:25;8.73;;;4.18;;
75007;SDS011;63554;48.940;12.050;2023-06-22T02:09:33;8.98;;;4.05;;
75007;SDS011;63554;48.940;12.050;2023-06-22T02:13:37;6.85;;;4.03;;
75007;SDS011;63554;48.940;12.050;2023-06-22T02:17:44;6.32;;;3.97;;
75007;SDS011;63554;48.940;12.050;2023-06-22T02:21:48;6.00;;;4.03;;
75007;SDS011;63554;48.940;12.050;2023-06-22T02:25:50;5.40;;;3.97;;
75007;SDS011;63554;48.940;12.050;2023-06-22T02:29:53;7.43;;;4.18;;
75007;SDS011;63554;48.940;12.050;2023-06-22T02:33:56;6.40;;;3.58;;
75007;SDS011;63554;48.940;12.050;2023-06-22T02:38:02;7.40;;;3.83;;
75007;SDS011;63554;48.940;12.050;2023-06-22T02:42:07;9.98;;;5.05;;
75007;SDS011;63554;48.940;12.050;2023-06-22T02:46:12;6.43;;;4.25;;
75007;SDS011;63554;48.940;12.050;2023-06-22T02:50:15;7.60;;;4.68;;
75007;SDS011;63554;48.940;12.050;2023-06-22T02:54:19;7.95;;;4.82;;
75007;SDS011;63554;48.940;12.050;2023-06-22T02:58:22;6.55;;;4.13;;
75007;SDS011;63554;48.940;12.050;2023-06-22T03:02:25;7.43;;;4.68;;
75007;SDS011;63554;48.940;12.050;2023-06-22T03:06:29;7.32;;;4.22;;
75007;SDS011;63554;48.940;12.050;2023-06-22T03:10:33;7.40;;;4.50;;
75007;SDS011;63554;48.940;12.050;2023-06-22T03:14:35;5.35;;;3.63;;
75007;SDS011;63554;48.940;12.050;2023-06-22T03:18:38;7.88;;;5.15;;
75007;SDS011;63554;48.940;12.050;2023-06-22T03:22:41;8.20;;;4.82;;
75007;SDS011;63554;48.940;12.050;2023-06-22T03:26:46;8.27;;;4.65;;
75007;SDS011;63554;48.940;12.050;2023-06-22T03:30:49;7.82;;;4.72;;
75007;SDS011;63554;48.940;12.050;2023-06-22T03:34:52;9.27;;;4.82;;
75007;SDS011;63554;48.940;12.050;2023-06-22T03:38:55;7.80;;;4.18;;
75007;SDS011;63554;48.940;12.050;2023-06-22T03:43:02;6.25;;;3.05;;
75007;SDS011;63554;48.940;12.050;2023-06-22T03:47:05;7.53;;;4.20;;
75007;SDS011;63554;48.940;12.050;2023-06-22T03:51:08;11.40;;;4.95;;
75007;SDS011;63554;48.940;12.050;2023-06-22T03:55:12;5.85;;;3.28;;
75007;SDS011;63554;48.940;12.050;2023-06-22T03:59:18;6.00;;;3.65;;
75007;SDS011;63554;48.940;12.050;2023-06-22T04:03:21;7.28;;;3.85;;
75007;SDS011;63554;48.940;12.050;2023-06-22T04:07:24;7.20;;;4.03;;
75007;SDS011;63554;48.940;12.050;2023-06-22T04:11:26;6.22;;;4.15;;
75007;SDS011;63554;48.940;12.050;2023-06-22T04:15:30;5.72;;;4.38;;
75007;SDS011;63554;48.940;12.050;2023-06-22T04:19:37;7.57;;;4.05;;
75007;SDS011;63554;48.940;12.050;2023-06-22T04:23:40;7.20;;;3.90;;
75007;SDS011;63554;48.940;12.050;2023-06-22T04:27:46;7.05;;;4.20;;
75007;SDS011;63554;48.940;12.050;2023-06-22T04:31:53;8.43;;;5.03;;
75007;SDS011;63554;48.940;12.050;2023-06-22T04:35:57;9.85;;;5.10;;
75007;SDS011;63554;48.940;12.050;2023-06-22T04:40:03;9.50;;;5.63;;
75007;SDS011;63554;48.940;12.050;2023-06-22T04:44:08;8.80;;;4.65;;
75007;SDS011;63554;48.940;12.050;2023-06-22T04:48:13;7.78;;;4.85;;
75007;SDS011;63554;48.940;12.050;2023-06-22T04:52:17;6.47;;;4.72;;
75007;SDS011;63554;48.940;12.050;2023-06-22T04:56:21;6.50;;;4.15;;
75007;SDS011;63554;48.940;12.050;2023-06-22T05:00:29;7.80;;;4.70;;
75007;SDS011;63554;48.940;12.050;2023-06-22T05:04:35;8.30;;;4.90;;
75007;SDS011;63554;48.940;12.050;2023-06-22T05:08:40;7.30;;;4.10;;
75007;SDS011;63554;48.940;12.050;2023-06-22T05:12:43;6.28;;;4.50;;
75007;SDS011;63554;48.940;12.050;2023-06-22T05:16:46;6.40;;;4.63;;
75007;SDS011;63554;48.940;12.050;2023-06-22T05:20:50;7.53;;;4.63;;
75007;SDS011;63554;48.940;12.050;2023-06-22T05:24:53;7.30;;;4.50;;
75007;SDS011;63554;48.940;12.050;2023-06-22T05:28:57;6.38;;;4.40;;
75007;SDS011;63554;48.940;12.050;2023-06-22T05:33:00;7.40;;;4.72;;
75007;SDS011;63554;48.940;12.050;2023-06-22T05:37:04;7.05;;;4.80;;
75007;SDS011;63554;48.940;12.050;2023-06-22T05:41:11;6.80;;;4.70;;
75007;SDS011;63554;48.940;12.050;2023-06-22T05:45:15;7.85;;;4.85;;
75007;SDS011;63554;48.940;12.050;2023-06-22T05:49:17;6.97;;;4.93;;
75007;SDS011;63554;48.940;12.050;2023-06-22T05:53:21;7.13;;;5.18;;
75007;SDS011;63554;48.940;12.050;2023-06-22T05:57:24;7.30;;;5.15;;
75007;SDS011;63554;48.940;12.050;2023-06-22T06:01:27;5.88;;;4.13;;
75007;SDS011;63554;48.940;12.050;2023-06-22T06:05:30;6.43;;;4.20;;
75007;SDS011;63554;48.940;12.050;2023-06-22T06:09:34;8.85;;;4.32;;
75007;SDS011;63554;48.940;12.050;2023-06-22T06:13:37;8.13;;;4.43;;
75007;SDS011;63554;48.940;12.050;2023-06-22T06:17:45;6.97;;;4.45;;
75007;SDS011;63554;48.940;12.050;2023-06-22T06:21:49;7.28;;;4.35;;
75007;SDS011;63554;48.940;12.050;2023-06-22T06:25:53;9.43;;;5.00;;
75007;SDS011;63554;48.940;12.050;2023-06-22T06:29:56;5.82;;;4.47;;
75007;SDS011;63554;48.940;12.050;2023-06-22T06:33:59;7.82;;;4.07;;
75007;SDS011;63554;48.940;12.050;2023-06-22T06:38:02;5.78;;;4.28;;
75007;SDS011;63554;48.940;12.050;2023-06-22T06:42:06;7.65;;;3.75;;
75007;SDS011;63554;48.940;12.050;2023-06-22T06:46:09;5.70;;;3.35;;
75007;SDS011;63554;48.940;12.050;2023-06-22T06:50:12;5.15;;;3.33;;
75007;SDS011;63554;48.940;12.050;2023-06-22T06:54:14;5.50;;;3.17;;
75007;SDS011;63554;48.940;12.050;2023-06-22T06:58:18;5.57;;;2.97;;
75007;SDS011;63554;48.940;12.050;2023-06-22T07:02:21;6.03;;;2.90;;
75007;SDS011;63554;48.940;12.050;2023-06-22T07:06:24;3.67;;;2.72;;
75007;SDS011;63554;48.940;12.050;2023-06-22T07:10:30;4.43;;;2.40;;
75007;SDS011;63554;48.940;12.050;2023-06-22T07:14:35;4.53;;;3.00;;
75007;SDS011;63554;48.940;12.050;2023-06-22T07:18:39;4.18;;;2.90;;
75007;SDS011;63554;48.940;12.050;2023-06-22T07:22:42;5.32;;;3.10;;
75007;SDS011;63554;48.940;12.050;2023-06-22T07:26:45;3.65;;;2.67;;
75007;SDS011;63554;48.940;12.050;2023-06-22T07:30:50;4.47;;;2.30;;
75007;SDS011;63554;48.940;12.050;2023-06-22T07:34:53;4.72;;;3.10;;
75007;SDS011;63554;48.940;12.050;2023-06-22T07:38:56;3.40;;;2.33;;
75007;SDS011;63554;48.940;12.050;2023-06-22T07:42:58;4.45;;;2.90;;
75007;SDS011;63554;48.940;12.050;2023-06-22T07:47:03;4.68;;;2.92;;
75007;SDS011;63554;48.940;12.050;2023-06-22T07:51:06;4.32;;;2.47;;
75007;SDS011;63554;48.940;12.050;2023-06-22T07:55:08;3.42;;;2.15;;
75007;SDS011;63554;48.940;12.050;2023-06-22T07:59:11;5.50;;;3.00;;
75007;SDS011;63554;48.940;12.050;2023-06-22T08:03:15;6.35;;;2.92;;
75007;SDS011;63554;48.940;12.050;2023-06-22T08:07:19;4.05;;;2.88;;
75007;SDS011;63554;48.940;12.050;2023-06-22T08:11:21;4.88;;;2.70;;
75007;SDS011;63554;48.940;12.050;2023-06-22T08:15:26;4.43;;;2.50;;
75007;SDS011;63554;48.940;12.050;2023-06-22T08:19:31;4.72;;;2.53;;
75007;SDS011;63554;48.940;12.050;2023-06-22T08:23:34;4.90;;;3.03;;
75007;SDS011;63554;48.940;12.050;2023-06-22T08:27:37;5.00;;;2.95;;
75007;SDS011;63554;48.940;12.050;2023-06-22T08:31:40;3.72;;;2.63;;
75007;SDS011;63554;48.940;12.050;2023-06-22T08:35:44;4.43;;;3.08;;
75007;SDS011;63554;48.940;12.050;2023-06-22T08:39:46;3.83;;;2.97;;
75007;SDS011;63554;48.940;12.050;2023-06-22T08:43:49;7.88;;;3.13;;
75007;SDS011;63554;48.940;12.050;2023-06-22T08:47:52;3.20;;;2.38;;
75007;SDS011;63554;48.940;12.050;2023-06-22T08:51:56;3.88;;;2.58;;
75007;SDS011;63554;48.940;12.050;2023-06-22T08:55:59;5.93;;;2.80;;
75007;SDS011;63554;48.940;12.050;2023-06-22T09:00:02;8.75;;;3.47;;
75007;SDS011;63554;48.940;12.050;2023-06-22T09:04:08;5.15;;;3.25;;
75007;SDS011;63554;48.940;12.050;2023-06-22T09:08:13;3.90;;;2.60;;
75007;SDS011;63554;48.940;12.050;2023-06-22T09:12:15;6.85;;;3.00;;
75007;SDS011;63554;48.940;12.050;2023-06-22T09:16:18;6.13;;;2.63;;
75007;SDS011;63554;48.940;12.050;2023-06-22T09:20:21;5.50;;;3.63;;
75007;SDS011;63554;48.940;12.050;2023-06-22T09:24:25;5.35;;;2.75;;
75007;SDS011;63554;48.940;12.050;2023-06-22T09:28:28;5.95;;;2.60;;
75007;SDS011;63554;48.940;12.050;2023-06-22T09:32:31;5.53;;;3.10;;
75007;SDS011;63554;48.940;12.050;2023-06-22T09:36:34;3.60;;;2.47;;
75007;SDS011;63554;48.940;12.050;2023-06-22T09:40:39;3.65;;;2.90;;
75007;SDS011;63554;48.940;12.050;2023-06-22T09:44:42;4.13;;;2.70;;
75007;SDS011;63554;48.940;12.050;2023-06-22T09:48:44;5.95;;;2.80;;
75007;SDS011;63554;48.940;12.050;2023-06-22T09:52:47;4.55;;;2.83;;
75007;SDS011;63554;48.940;12.050;2023-06-22T09:56:58;3.65;;;2.90;;
75007;SDS011;63554;48.940;12.050;2023-06-22T10:01:00;6.07;;;3.25;;
75007;SDS011;63554;48.940;12.050;2023-06-22T10:05:03;4.43;;;2.60;;
75007;SDS011;63554;48.940;12.050;2023-06-22T10:09:07;6.07;;;2.85;;
75007;SDS011;63554;48.940;12.050;2023-06-22T10:13:11;6.78;;;3.13;;
75007;SDS011;63554;48.940;12.050;2023-06-22T10:17:14;5.22;;;2.95;;
75007;SDS011;63554;48.940;12.050;2023-06-22T10:21:17;4.93;;;2.85;;
75007;SDS011;63554;48.940;12.050;2023-06-22T10:25:19;4.90;;;2.90;;
75007;SDS011;63554;48.940;12.050;2023-06-22T10:29:26;5.13;;;2.58;;
75007;SDS011;63554;48.940;12.050;2023-06-22T10:33:28;7.32;;;3.35;;
75007;SDS011;63554;48.940;12.050;2023-06-22T10:37:31;4.63;;;3.08;;
75007;SDS011;63554;48.940;12.050;2023-06-22T10:41:34;4.07;;;3.03;;
75007;SDS011;63554;48.940;12.050;2023-06-22T10:45:38;4.32;;;2.35;;
75007;SDS011;63554;48.940;12.050;2023-06-22T10:49:41;4.28;;;2.92;;
75007;SDS011;63554;48.940;12.050;2023-06-22T10:53:44;4.57;;;2.80;;
75007;SDS011;63554;48.940;12.050;2023-06-22T10:57:46;5.72;;;2.85;;
75007;SDS011;63554;48.940;12.050;2023-06-22T11:01:51;4.78;;;2.65;;
75007;SDS011;63554;48.940;12.050;2023-06-22T11:05:53;4.60;;;3.05;;
75007;SDS011;63554;48.940;12.050;2023-06-22T11:09:56;4.88;;;2.88;;
75007;SDS011;63554;48.940;12.050;2023-06-22T11:13:59;4.55;;;3.50;;
75007;SDS011;63554;48.940;12.050;2023-06-22T11:18:03;6.78;;;3.20;;
75007;SDS011;63554;48.940;12.050;2023-06-22T11:22:08;6.47;;;3.25;;
75007;SDS011;63554;48.940;12.050;2023-06-22T11:26:11;4.00;;;2.80;;
75007;SDS011;63554;48.940;12.050;2023-06-22T11:30:13;5.95;;;3.40;;
75007;SDS011;63554;48.940;12.050;2023-06-22T11:34:19;8.82;;;3.53;;
75007;SDS011;63554;48.940;12.050;2023-06-22T11:38:21;4.97;;;3.53;;
75007;SDS011;63554;48.940;12.050;2023-06-22T11:42:24;6.40;;;3.10;;
75007;SDS011;63554;48.940;12.050;2023-06-22T11:46:27;7.70;;;4.40;;
75007;SDS011;63554;48.940;12.050;2023-06-22T11:50:31;6.78;;;3.60;;
75007;SDS011;63554;48.940;12.050;2023-06-22T11:54:37;5.07;;;2.80;;
75007;SDS011;63554;48.940;12.050;2023-06-22T11:58:40;8.23;;;3.78;;
75007;SDS011;63554;48.940;12.050;2023-06-22T12:02:43;7.10;;;3.28;;
75007;SDS011;63554;48.940;12.050;2023-06-22T12:06:49;5.78;;;3.30;;
75007;SDS011;63554;48.940;12.050;2023-06-22T12:10:51;5.80;;;3.20;;
75007;SDS011;63554;48.940;12.050;2023-06-22T12:14:55;4.50;;;3.05;;
75007;SDS011;63554;48.940;12.050;2023-06-22T12:18:57;8.13;;;3.53;;
75007;SDS011;63554;48.940;12.050;2023-06-22T12:23:02;5.95;;;3.42;;
75007;SDS011;63554;48.940;12.050;2023-06-22T12:27:05;7.20;;;3.88;;
75007;SDS011;63554;48.940;12.050;2023-06-22T12:31:08;10.32;;;3.20;;
75007;SDS011;63554;48.940;12.050;2023-06-22T12:35:11;5.80;;;3.10;;
75007;SDS011;63554;48.940;12.050;2023-06-22T12:39:16;8.25;;;3.10;;
75007;SDS011;63554;48.940;12.050;2023-06-22T12:43:19;4.03;;;2.88;;
75007;SDS011;63554;48.940;12.050;2023-06-22T12:47:22;6.05;;;3.40;;
75007;SDS011;63554;48.940;12.050;2023-06-22T12:51:24;6.85;;;3.10;;
75007;SDS011;63554;48.940;12.050;2023-06-22T12:55:28;3.85;;;3.03;;
75007;SDS011;63554;48.940;12.050;2023-06-22T12:59:31;7.32;;;3.50;;
75007;SDS011;63554;48.940;12.050;2023-06-22T13:03:34;7.20;;;3.20;;
75007;SDS011;63554;48.940;12.050;2023-06-22T13:07:37;5.25;;;3.22;;
75007;SDS011;63554;48.940;12.050;2023-06-22T13:11:41;5.18;;;2.90;;
75007;SDS011;63554;48.940;12.050;2023-06-22T13:15:44;4.63;;;2.70;;
75007;SDS011;63554;48.940;12.050;2023-06-22T13:19:46;3.92;;;2.75;;
75007;SDS011;63554;48.940;12.050;2023-06-22T13:23:49;5.95;;;3.20;;
75007;SDS011;63554;48.940;12.050;2023-06-22T13:27:53;6.03;;;3.13;;
75007;SDS011;63554;48.940;12.050;2023-06-22T13:31:56;6.40;;;3.00;;
75007;SDS011;63554;48.940;12.050;2023-06-22T13:35:59;4.93;;;2.67;;
75007;SDS011;63554;48.940;12.050;2023-06-22T13:40:05;4.22;;;2.72;;
75007;SDS011;63554;48.940;12.050;2023-06-22T13:44:09;4.50;;;3.33;;
75007;SDS011;63554;48.940;12.050;2023-06-22T13:48:12;4.57;;;3.25;;
75007;SDS011;63554;48.940;12.050;2023-06-22T13:52:15;7.07;;;3.15;;
75007;SDS011;63554;48.940;12.050;2023-06-22T13:56:17;4.68;;;2.97;;
75007;SDS011;63554;48.940;12.050;2023-06-22T14:00:21;5.20;;;2.70;;
75007;SDS011;63554;48.940;12.050;2023-06-22T14:04:24;3.90;;;2.42;;
75007;SDS011;63554;48.940;12.050;2023-06-22T14:08:28;4.57;;;2.90;;
75007;SDS011;63554;48.940;12.050;2023-06-22T14:12:33;7.28;;;3.05;;
75007;SDS011;63554;48.940;12.050;2023-06-22T14:16:37;4.25;;;2.70;;
75007;SDS011;63554;48.940;12.050;2023-06-22T14:20:40;4.82;;;2.90;;
75007;SDS011;63554;48.940;12.050;2023-06-22T14:24:42;4.82;;;2.80;;
75007;SDS011;63554;48.940;12.050;2023-06-22T14:28:45;6.88;;;2.78;;
75007;SDS011;63554;48.940;12.050;2023-06-22T14:32:51;6.75;;;2.70;;
75007;SDS011;63554;48.940;12.050;2023-06-22T14:36:54;4.03;;;2.00;;
75007;SDS011;63554;48.940;12.050;2023-06-22T14:40:56;7.95;;;2.58;;
75007;SDS011;63554;48.940;12.050;2023-06-22T14:45:14;6.03;;;2.53;;
75007;SDS011;63554;48.940;12.050;2023-06-22T14:49:18;7.63;;;2.70;;
75007;SDS011;63554;48.940;12.050;2023-06-22T14:53:22;5.85;;;2.80;;
75007;SDS011;63554;48.940;12.050;2023-06-22T14:57:25;7.13;;;2.88;;
75007;SDS011;63554;48.940;12.050;2023-06-22T15:01:28;4.63;;;2.92;;
75007;SDS011;63554;48.940;12.050;2023-06-22T15:05:32;5.15;;;2.42;;
75007;SDS011;63554;48.940;12.050;2023-06-22T15:09:35;4.60;;;2.60;;
75007;SDS011;63554;48.940;12.050;2023-06-22T15:13:40;6.05;;;2.60;;
75007;SDS011;63554;48.940;12.050;2023-06-22T15:17:43;3.85;;;2.60;;
75007;SDS011;63554;48.940;12.050;2023-06-22T15:21:47;6.35;;;2.70;;
75007;SDS011;63554;48.940;12.050;2023-06-22T15:25:50;4.90;;;3.08;;
75007;SDS011;63554;48.940;12.050;2023-06-22T15:29:53;4.80;;;2.88;;
75007;SDS011;63554;48.940;12.050;2023-06-22T15:33:56;6.15;;;2.90;;
75007;SDS011;63554;48.940;12.050;2023-06-22T15:38:00;4.47;;;2.80;;
75007;SDS011;63554;48.940;12.050;2023-06-22T15:42:03;7.70;;;2.70;;
75007;SDS011;63554;48.940;12.050;2023-06-22T15:46:07;5.90;;;2.70;;
75007;SDS011;63554;48.940;12.050;2023-06-22T15:50:10;8.65;;;3.45;;
75007;SDS011;63554;48.940;12.050;2023-06-22T15:54:14;6.55;;;2.58;;
75007;SDS011;63554;48.940;12.050;2023-06-22T15:58:17;6.57;;;2.72;;
75007;SDS011;63554;48.940;12.050;2023-06-22T16:02:20;6.05;;;2.53;;
75007;SDS011;63554;48.940;12.050;2023-06-22T16:06:23;7.97;;;3.30;;
75007;SDS011;63554;48.940;12.050;2023-06-22T16:10:27;6.20;;;2.97;;
75007;SDS011;63554;48.940;12.050;2023-06-22T16:14:31;10.02;;;2.67;;
75007;SDS011;63554;48.940;12.050;2023-06-22T16:18:33;5.03;;;2.60;;
75007;SDS011;63554;48.940;12.050;2023-06-22T16:22:36;7.63;;;2.58;;
75007;SDS011;63554;48.940;12.050;2023-06-22T16:26:41;6.20;;;2.80;;
75007;SDS011;63554;48.940;12.050;2023-06-22T16:30:44;4.00;;;2.50;;
75007;SDS011;63554;48.940;12.050;2023-06-22T16:34:47;6.10;;;3.10;;
75007;SDS011;63554;48.940;12.050;2023-06-22T16:38:50;7.97;;;4.10;;
75007;SDS011;63554;48.940;12.050;2023-06-22T16:42:54;6.63;;;3.00;;
75007;SDS011;63554;48.940;12.050;2023-06-22T16:46:57;6.90;;;2.83;;
75007;SDS011;63554;48.940;12.050;2023-06-22T16:51:01;8.52;;;4.13;;
75007;SDS011;63554;48.940;12.050;2023-06-22T16:55:04;8.52;;;3.13;;
75007;SDS011;63554;48.940;12.050;2023-06-22T16:59:09;7.28;;;3.67;;
75007;SDS011;63554;48.940;12.050;2023-06-22T17:03:14;6.07;;;2.85;;
75007;SDS011;63554;48.940;12.050;2023-06-22T17:07:22;6.38;;;3.00;;
75007;SDS011;63554;48.940;12.050;2023-06-22T17:11:28;7.20;;;3.00;;
75007;SDS011;63554;48.940;12.050;2023-06-22T17:15:32;9.07;;;3.00;;
75007;SDS011;63554;48.940;12.050;2023-06-22T17:19:37;9.45;;;2.80;;
75007;SDS011;63554;48.940;12.050;2023-06-22T17:23:39;6.35;;;2.70;;
75007;SDS011;63554;48.940;12.050;2023-06-22T17:27:46;5.88;;;2.63;;
75007;SDS011;63554;48.940;12.050;2023-06-22T17:31:50;6.03;;;2.78;;
75007;SDS011;63554;48.940;12.050;2023-06-22T17:35:58;7.18;;;3.17;;
75007;SDS011;63554;48.940;12.050;2023-06-22T17:40:07;6.22;;;2.80;;
75007;SDS011;63554;48.940;12.050;2023-06-22T17:44:17;4.30;;;3.08;;
75007;SDS011;63554;48.940;12.050;2023-06-22T17:52:26;7.43;;;4.82;;
75007;SDS011;63554;48.940;12.050;2023-06-22T17:56:29;4.68;;;2.95;;
75007;SDS011;63554;48.940;12.050;2023-06-22T18:00:31;4.25;;;2.95;;
75007;SDS011;63554;48.940;12.050;2023-06-22T18:04:36;6.43;;;3.03;;
75007;SDS011;63554;48.940;12.050;2023-06-22T18:08:39;6.55;;;4.07;;
75007;SDS011;63554;48.940;12.050;2023-06-22T18:12:42;7.82;;;3.70;;
75007;SDS011;63554;48.940;12.050;2023-06-22T18:16:48;3.83;;;3.25;;
75007;SDS011;63554;48.940;12.050;2023-06-22T18:20:53;4.80;;;3.35;;
75007;SDS011;63554;48.940;12.050;2023-06-22T18:24:58;8.10;;;3.17;;
75007;SDS011;63554;48.940;12.050;2023-06-22T18:29:04;7.38;;;3.38;;
75007;SDS011;63554;48.940;12.050;2023-06-22T18:33:08;4.97;;;2.80;;
75007;SDS011;63554;48.940;12.050;2023-06-22T18:37:13;6.78;;;3.22;;
75007;SDS011;63554;48.940;12.050;2023-06-22T18:41:20;5.70;;;3.65;;
75007;SDS011;63554;48.940;12.050;2023-06-22T18:45:25;7.13;;;3.22;;
75007;SDS011;63554;48.940;12.050;2023-06-22T18:49:30;10.25;;;3.20;;
75007;SDS011;63554;48.940;12.050;2023-06-22T18:53:35;6.03;;;2.97;;
75007;SDS011;63554;48.940;12.050;2023-06-22T18:57:38;7.72;;;3.88;;
75007;SDS011;63554;48.940;12.050;2023-06-22T19:01:41;8.65;;;3.63;;
75007;SDS011;63554;48.940;12.050;2023-06-22T19:05:43;6.80;;;3.85;;
75007;SDS011;63554;48.940;12.050;2023-06-22T19:09:52;6.30;;;3.47;;
75007;SDS011;63554;48.940;12.050;2023-06-22T19:14:35;8.18;;;3.20;;
75007;SDS011;63554;48.940;12.050;2023-06-22T19:18:39;6.75;;;3.60;;
75007;SDS011;63554;48.940;12.050;2023-06-22T19:26:49;8.43;;;3.78;;
75007;SDS011;63554;48.940;12.050;2023-06-22T19:30:55;7.75;;;4.20;;
75007;SDS011;63554;48.940;12.050;2023-06-22T19:34:59;7.05;;;3.60;;
75007;SDS011;63554;48.940;12.050;2023-06-22T19:39:04;8.35;;;3.60;;
75007;SDS011;63554;48.940;12.050;2023-06-22T19:43:06;7.85;;;3.15;;
75007;SDS011;63554;48.940;12.050;2023-06-22T19:47:11;6.25;;;3.72;;
75007;SDS011;63554;48.940;12.050;2023-06-22T19:51:14;13.63;;;4.10;;
75007;SDS011;63554;48.940;12.050;2023-06-22T19:55:16;9.75;;;3.50;;
75007;SDS011;63554;48.940;12.050;2023-06-22T19:59:20;6.93;;;3.47;;
75007;SDS011;63554;48.940;12.050;2023-06-22T20:03:27;7.88;;;4.07;;
75007;SDS011;63554;48.940;12.050;2023-06-22T20:07:33;8.98;;;3.70;;
75007;SDS011;63554;48.940;12.050;2023-06-22T20:11:38;8.38;;;3.90;;
75007;SDS011;63554;48.940;12.050;2023-06-22T20:15:41;5.43;;;3.88;;
75007;SDS011;63554;48.940;12.050;2023-06-22T20:19:52;14.02;;;3.65;;
75007;SDS011;63554;48.940;12.050;2023-06-22T20:23:55;10.63;;;3.85;;
75007;SDS011;63554;48.940;12.050;2023-06-22T20:28:05;7.57;;;3.55;;
75007;SDS011;63554;48.940;12.050;2023-06-22T20:32:12;6.28;;;3.47;;
75007;SDS011;63554;48.940;12.050;2023-06-22T20:36:17;10.73;;;4.00;;
75007;SDS011;63554;48.940;12.050;2023-06-22T20:40:21;9.65;;;4.47;;
75007;SDS011;63554;48.940;12.050;2023-06-22T20:44:27;7.40;;;4.35;;
75007;SDS011;63554;48.940;12.050;2023-06-22T20:48:30;7.07;;;3.00;;
75007;SDS011;63554;48.940;12.050;2023-06-22T20:52:40;5.45;;;2.45;;
75007;SDS011;63554;48.940;12.050;2023-06-22T20:56:43;6.32;;;2.05;;
75007;SDS011;63554;48.940;12.050;2023-06-22T21:00:46;4.97;;;2.15;;
75007;SDS011;63554;48.940;12.050;2023-06-22T21:04:49;4.45;;;1.80;;
75007;SDS011;63554;48.940;12.050;2023-06-22T21:08:53;4.90;;;1.58;;
75007;SDS011;63554;48.940;12.050;2023-06-22T21:12:57;4.65;;;1.42;;
75007;SDS011;63554;48.940;12.050;2023-06-22T21:17:00;2.45;;;1.40;;
75007;SDS011;63554;48.940;12.050;2023-06-22T21:21:02;6.28;;;1.50;;
75007;SDS011;63554;48.940;12.050;2023-06-22T21:25:07;3.17;;;1.33;;
75007;SDS011;63554;48.940;12.050;2023-06-22T21:29:11;3.72;;;1.30;;
75007;SDS011;63554;48.940;12.050;2023-06-22T21:33:14;3.17;;;1.02;;
75007;SDS011;63554;48.940;12.050;2023-06-22T21:37:17;2.08;;;1.10;;
75007;SDS011;63554;48.940;12.050;2023-06-22T21:41:21;1.83;;;1.20;;
75007;SDS011;63554;48.940;12.050;2023-06-22T21:45:24;3.78;;;1.33;;
75007;SDS011;63554;48.940;12.050;2023-06-22T21:49:26;3.28;;;1.42;;
75007;SDS011;63554;48.940;12.050;2023-06-22T21:53:29;4.15;;;1.25;;
75007;SDS011;63554;48.940;12.050;2023-06-22T21:57:33;3.90;;;2.13;;
75007;SDS011;63554;48.940;12.050;2023-06-22T22:01:36;4.68;;;1.30;;
75007;SDS011;63554;48.940;12.050;2023-06-22T22:05:38;7.10;;;1.52;;
75007;SDS011;63554;48.940;12.050;2023-06-22T22:09:41;4.32;;;1.58;;
75007;SDS011;63554;48.940;12.050;2023-06-22T22:13:45;2.90;;;1.50;;
75007;SDS011;63554;48.940;12.050;2023-06-22T22:17:48;3.90;;;1.88;;
75007;SDS011;63554;48.940;12.050;2023-06-22T22:21:50;4.82;;;1.10;;
75007;SDS011;63554;48.940;12.050;2023-06-22T22:25:53;3.22;;;1.55;;
75007;SDS011;63554;48.940;12.050;2023-06-22T22:29:57;3.95;;;2.13;;
75007;SDS011;63554;48.940;12.050;2023-06-22T22:34:00;2.58;;;1.60;;
75007;SDS011;63554;48.940;12.050;2023-06-22T22:38:02;4.22;;;1.60;;
75007;SDS011;63554;48.940;12.050;2023-06-22T22:42:06;7.07;;;1.73;;
75007;SDS011;63554;48.940;12.050;2023-06-22T22:46:12;4.95;;;1.98;;
75007;SDS011;63554;48.940;12.050;2023-06-22T22:50:14;7.15;;;1.70;;
75007;SDS011;63554;48.940;12.050;2023-06-22T22:54:17;4.55;;;1.50;;
75007;SDS011;63554;48.940;12.050;2023-06-22T22:58:20;3.78;;;1.48;;
75007;SDS011;63554;48.940;12.050;2023-06-22T23:02:24;2.78;;;1.70;;
75007;SDS011;63554;48.940;12.050;2023-06-22T23:06:27;2.85;;;1.45;;
75007;SDS011;63554;48.940;12.050;2023-06-22T23:10:30;5.07;;;1.70;;
75007;SDS011;63554;48.940;12.050;2023-06-22T23:14:32;3.33;;;1.42;;
75007;SDS011;63554;48.940;12.050;2023-06-22T23:18:36;3.30;;;1.55;;
75007;SDS011;63554;48.940;12.050;2023-06-22T23:22:39;2.30;;;1.55;;
75007;SDS011;63554;48.940;12.050;2023-06-22T23:26:42;2.20;;;1.45;;
75007;SDS011;63554;48.940;12.050;2023-06-22T23:30:47;2.42;;;1.60;;
75007;SDS011;63554;48.940;12.050;2023-06-22T23:34:51;3.05;;;1.60;;
75007;SDS011;63554;48.940;12.050;2023-06-22T23:38:54;4.15;;;1.60;;
75007;SDS011;63554;48.940;12.050;2023-06-22T23:42:56;3.88;;;1.77;;
75007;SDS011;63554;48.940;12.050;2023-06-22T23:46:59;3.85;;;1.83;;
75007;SDS011;63554;48.940;12.050;2023-06-22T23:51:03;4.32;;;1.77;;
75007;SDS011;63554;48.940;12.050;2023-06-22T23:55:06;3.13;;;1.90;;
75007;SDS011;63554;48.940;12.050;2023-06-22T23:59:09;7.07;;;1.92;;
